This is the latest recevied weather packets stored in our database for station/object HS5GDX-4. If no packets are shown the sender has not sent any weather packets the latest 10 day(s).
| Time | Temp. | Humidity | Pressure | Rain* | Wind** | Luminosity | Snow |
|---|---|---|---|---|---|---|---|
| 1778264754 | 31.11° C | 48% | 968 hPa | - | - | 0 W/m² | - |
| 1778263826 | 30.56° C | 50% | 968 hPa | - | - | 0 W/m² | - |
| 1778262897 | 30.56° C | 51% | 968 hPa | - | - | 0 W/m² | - |
| 1778261968 | 30° C | 53% | 968 hPa | - | - | 0 W/m² | - |
| 1778261940 | 30° C | 52% | 968 hPa | - | - | 0 W/m² | - |
| 1778261825 | 30° C | 52% | 968 hPa | - | - | 0 W/m² | - |
| 1778259470 | 32.22° C | 48% | 969 hPa | - | - | 0 W/m² | - |
| 1778258540 | 32.22° C | 48% | 969 hPa | - | - | 0 W/m² | - |
| 1778257610 | 32.22° C | 47% | 969 hPa | - | - | 0 W/m² | - |
| 1778256681 | 32.78° C | 46% | 969 hPa | - | - | 0 W/m² | - |
| 1778255753 | 33.33° C | 45% | 969 hPa | - | - | 0 W/m² | - |
| 1778254824 | 33.89° C | 45% | 969 hPa | - | - | 0 W/m² | - |
| 1778253896 | 33.33° C | 45% | 969 hPa | - | - | 0 W/m² | - |
| 1778252967 | 33.33° C | 47% | 968 hPa | - | - | 0 W/m² | - |
| 1778252570 | 33.89° C | 45% | 968 hPa | - | - | 0 W/m² | - |
| 1778251642 | 35° C | 43% | 968 hPa | - | - | 0 W/m² | - |
| 1778250714 | 35° C | 43% | 968 hPa | - | - | 0 W/m² | - |
| 1778249785 | 35° C | 43% | 967 hPa | - | - | 0 W/m² | - |
| 1778248856 | 35.56° C | 42% | 967 hPa | - | - | 0 W/m² | - |
| 1778247928 | 35° C | 43% | 966 hPa | - | - | 0 W/m² | - |
| 1778247000 | 35° C | 43% | 966 hPa | - | - | 0 W/m² | - |
| 1778246073 | 35.56° C | 42% | 966 hPa | - | - | 0 W/m² | - |
| 1778245146 | 35.56° C | 42% | 965 hPa | - | - | 0 W/m² | - |
| 1778244219 | 35.56° C | 43% | 965 hPa | - | - | 0 W/m² | - |
| 1778243292 | 36.11° C | 40% | 965 hPa | - | - | 0 W/m² | - |
* Rain since midnight (hover to see other rain measurements)
** Current wind speed in m/s (hover to see current wind gust speed)